createdAt,value
2022-12-19T00:01:33.629Z,7.50
2022-12-19T00:04:38.221Z,6.72
2022-12-19T00:07:42.979Z,9.43
2022-12-19T00:10:57.672Z,6.53
2022-12-19T00:14:02.378Z,9.05
2022-12-19T00:17:06.762Z,5.28
2022-12-19T00:20:11.921Z,7.30
2022-12-19T00:23:19.085Z,6.40
2022-12-19T00:26:28.882Z,9.48
2022-12-19T00:29:33.598Z,7.07
2022-12-19T00:35:43.133Z,5.50
2022-12-19T00:38:49.311Z,4.68
2022-12-19T00:41:53.733Z,14.45
2022-12-19T00:44:59.769Z,12.88
2022-12-19T00:48:04.108Z,10.18
2022-12-19T00:51:20.033Z,6.53
2022-12-19T00:54:24.980Z,9.20
2022-12-19T00:57:30.189Z,5.20
2022-12-19T01:00:34.615Z,4.25
2022-12-19T01:03:39.205Z,5.05
2022-12-19T01:06:43.722Z,4.70
2022-12-19T01:09:49.704Z,5.18
2022-12-19T01:12:55.663Z,6.30
2022-12-19T01:16:08.861Z,4.25
2022-12-19T01:19:13.170Z,4.05
2022-12-19T01:22:17.748Z,6.68
2022-12-19T01:25:23.682Z,7.97
2022-12-19T01:28:28.434Z,5.47
2022-12-19T01:31:34.086Z,5.80
2022-12-19T01:34:40.214Z,9.50
2022-12-19T01:37:44.657Z,5.82
2022-12-19T01:40:55.252Z,7.20
2022-12-19T01:44:02.566Z,17.13
2022-12-19T01:47:15.555Z,7.32
2022-12-19T01:50:57.297Z,3.38
2022-12-19T01:54:09.934Z,9.50
2022-12-19T01:57:17.619Z,7.15
2022-12-19T02:00:22.800Z,11.10
2022-12-19T02:03:33.555Z,4.82
2022-12-19T02:06:40.426Z,14.32
2022-12-19T02:09:50.572Z,11.80
2022-12-19T02:13:10.023Z,5.88
2022-12-19T02:16:34.884Z,4.80
2022-12-19T02:20:08.795Z,6.05
2022-12-19T02:23:50.606Z,3.70
2022-12-19T02:27:25.229Z,3.08
2022-12-19T02:30:38.821Z,6.15
2022-12-19T02:33:49.235Z,3.90
2022-12-19T02:37:11.846Z,15.52
2022-12-19T02:40:34.961Z,3.08
2022-12-19T02:43:46.136Z,7.32
2022-12-19T02:46:54.569Z,6.72
2022-12-19T02:50:04.071Z,5.68
2022-12-19T02:53:12.003Z,16.35
2022-12-19T02:56:16.600Z,8.35
2022-12-19T02:59:53.783Z,5.57
2022-12-19T03:03:06.217Z,3.95
2022-12-19T03:06:27.469Z,3.17
2022-12-19T03:09:35.079Z,3.05
2022-12-19T03:12:55.115Z,5.82
2022-12-19T03:16:02.807Z,4.57
2022-12-19T03:19:11.909Z,8.68
2022-12-19T03:22:16.558Z,4.90
2022-12-19T03:25:24.102Z,2.95
2022-12-19T03:28:37.960Z,4.63
2022-12-19T03:31:44.327Z,114.88
2022-12-19T03:35:18.233Z,4.10
2022-12-19T03:38:24.381Z,11.23
2022-12-19T03:41:47.487Z,6.40
2022-12-19T03:44:54.572Z,6.43
2022-12-19T03:48:05.137Z,4.55
2022-12-19T03:51:31.319Z,4.50
2022-12-19T03:54:43.357Z,4.43
2022-12-19T03:58:07.010Z,5.30
2022-12-19T04:01:12.066Z,8.27
2022-12-19T04:04:18.133Z,14.15
2022-12-19T04:07:23.905Z,9.98
2022-12-19T04:10:30.239Z,9.55
2022-12-19T04:13:40.074Z,18.38
2022-12-19T04:16:56.892Z,15.00
2022-12-19T04:20:08.692Z,31.40
2022-12-19T04:23:26.479Z,5.97
2022-12-19T04:26:32.782Z,11.57
2022-12-19T04:29:39.893Z,4.38
2022-12-19T04:32:47.331Z,5.35
2022-12-19T04:35:52.263Z,7.53
2022-12-19T04:38:56.597Z,9.95
2022-12-19T04:42:01.395Z,8.07
2022-12-19T04:45:07.197Z,10.43
2022-12-19T04:48:12.060Z,6.70
2022-12-19T04:51:17.506Z,2.60
2022-12-19T04:57:26.231Z,7.80
2022-12-19T05:00:30.654Z,5.28
2022-12-19T05:03:36.045Z,3.77
2022-12-19T05:09:45.060Z,2.72
2022-12-19T05:12:49.383Z,7.57
2022-12-19T05:16:01.246Z,17.02
2022-12-19T05:19:05.885Z,4.25
2022-12-19T05:22:10.338Z,3.33
2022-12-19T05:25:14.857Z,5.17
2022-12-19T05:28:20.064Z,3.45
2022-12-19T05:31:24.667Z,3.90
2022-12-19T05:34:29.154Z,2.85
2022-12-19T05:37:34.243Z,4.97
2022-12-19T05:40:38.879Z,3.47
2022-12-19T05:43:50.558Z,3.20
2022-12-19T05:46:55.188Z,17.30
2022-12-19T05:49:59.580Z,4.10
2022-12-19T05:53:04.163Z,20.17
2022-12-19T05:56:16.631Z,3.65
2022-12-19T05:59:21.092Z,3.92
2022-12-19T06:02:26.149Z,2.53
2022-12-19T06:05:33.258Z,5.25
2022-12-19T06:08:37.841Z,21.90
2022-12-19T06:11:43.342Z,7.07
2022-12-19T06:14:47.934Z,3.65
2022-12-19T06:17:57.620Z,4.30
2022-12-19T06:21:05.415Z,4.40
2022-12-19T06:24:10.044Z,3.20
2022-12-19T06:27:14.662Z,6.00
2022-12-19T06:30:21.730Z,5.03
2022-12-19T06:33:27.031Z,3.78
2022-12-19T06:39:36.896Z,3.33
2022-12-19T06:42:41.520Z,3.42
2022-12-19T06:45:45.938Z,4.55
2022-12-19T06:48:50.735Z,5.28
2022-12-19T06:51:55.202Z,4.43
2022-12-19T06:54:59.761Z,4.47
2022-12-19T06:58:04.531Z,3.33
2022-12-19T07:01:09.529Z,3.90
2022-12-19T07:04:17.412Z,4.78
2022-12-19T07:07:22.182Z,6.10
2022-12-19T07:10:29.393Z,5.82
2022-12-19T07:13:35.101Z,6.47
2022-12-19T07:16:39.980Z,16.05
2022-12-19T07:19:45.964Z,11.70
2022-12-19T07:22:50.857Z,15.30
2022-12-19T07:25:55.852Z,13.93
2022-12-19T07:29:01.601Z,11.27
2022-12-19T07:32:06.128Z,10.80
2022-12-19T07:35:11.442Z,9.65
2022-12-19T07:38:15.898Z,8.98
2022-12-19T07:41:20.342Z,7.50
2022-12-19T07:44:24.679Z,8.87
2022-12-19T07:47:29.453Z,37.22
2022-12-19T07:50:34.491Z,22.10
2022-12-19T07:53:39.223Z,19.00
2022-12-19T07:56:44.062Z,34.60
2022-12-19T07:59:48.716Z,52.72
2022-12-19T08:02:53.632Z,57.00
2022-12-19T08:06:03.025Z,51.67
2022-12-19T08:09:07.770Z,34.50
2022-12-19T08:12:12.100Z,22.95
2022-12-19T08:15:16.897Z,31.73
2022-12-19T08:18:21.330Z,24.83
2022-12-19T08:21:26.259Z,32.35
2022-12-19T08:24:31.737Z,49.05
2022-12-19T08:27:36.447Z,34.13
2022-12-19T08:30:42.301Z,55.28
2022-12-19T08:33:48.391Z,68.20
2022-12-19T08:36:52.902Z,67.57
2022-12-19T08:39:57.263Z,118.43
2022-12-19T08:43:01.907Z,81.68
2022-12-19T08:46:07.713Z,49.40
2022-12-19T08:49:12.265Z,26.20
2022-12-19T08:52:18.852Z,70.97
2022-12-19T08:55:23.245Z,64.97
2022-12-19T08:58:29.617Z,72.22
2022-12-19T09:01:34.301Z,76.20
2022-12-19T09:05:50.861Z,69.68
2022-12-19T09:08:03.527Z,79.93
2022-12-19T09:11:17.264Z,80.00
2022-12-19T09:14:22.778Z,76.05
2022-12-19T09:17:27.262Z,94.93
2022-12-19T09:20:32.091Z,87.43
2022-12-19T09:23:37.394Z,70.43
2022-12-19T09:26:43.057Z,67.22
2022-12-19T09:29:47.878Z,45.38
2022-12-19T09:32:52.584Z,55.47
2022-12-19T09:35:58.056Z,55.80
2022-12-19T09:39:02.839Z,60.85
2022-12-19T09:42:25.464Z,82.00
2022-12-19T09:45:39.871Z,48.53
2022-12-19T09:48:52.496Z,37.17
2022-12-19T09:52:26.989Z,49.03
2022-12-19T09:55:40.892Z,33.08
2022-12-19T09:59:03.263Z,41.13
2022-12-19T10:02:26.042Z,36.72
2022-12-19T10:07:07.740Z,28.67
2022-12-19T10:11:06.461Z,33.20
2022-12-19T10:13:34.470Z,32.35
2022-12-19T10:17:23.050Z,24.35
2022-12-19T10:20:28.501Z,22.70
2022-12-19T10:23:57.665Z,21.65
2022-12-19T10:27:07.963Z,20.20
2022-12-19T10:30:21.935Z,15.82
2022-12-19T10:33:36.552Z,20.10
2022-12-19T10:40:28.437Z,13.57
2022-12-19T10:43:56.592Z,12.70
2022-12-19T10:47:01.378Z,12.98
2022-12-19T10:50:15.786Z,7.38
2022-12-19T10:53:29.929Z,10.88
2022-12-19T10:56:37.693Z,11.48
2022-12-19T11:00:02.537Z,12.20
2022-12-19T11:03:18.998Z,11.07
2022-12-19T11:06:36.303Z,8.35
2022-12-19T11:09:49.619Z,7.90
2022-12-19T11:18:57.068Z,12.05
2022-12-19T11:23:40.995Z,11.10
2022-12-19T11:29:47.127Z,7.32
2022-12-19T11:29:54.222Z,7.65
2022-12-19T11:30:41.131Z,17.15
2022-12-19T11:34:52.413Z,16.70
2022-12-19T11:38:01.582Z,29.08
2022-12-19T11:41:40.150Z,70.20
2022-12-19T11:45:17.410Z,24.15
2022-12-19T11:48:26.071Z,31.90
2022-12-19T11:51:36.287Z,31.05
2022-12-19T11:55:06.948Z,36.42
2022-12-19T11:58:12.758Z,26.58
2022-12-19T12:01:26.188Z,20.48
2022-12-19T12:05:14.461Z,26.00
2022-12-19T12:12:39.388Z,14.57
2022-12-19T12:20:29.559Z,12.60
2022-12-19T12:25:57.835Z,15.60
2022-12-19T12:31:06.910Z,16.92
2022-12-19T12:31:44.721Z,37.53
2022-12-19T12:31:49.684Z,16.35
2022-12-19T12:38:40.021Z,9.23
2022-12-19T12:42:18.345Z,12.65
2022-12-19T12:45:37.441Z,7.38
2022-12-19T12:49:09.393Z,10.30
2022-12-19T12:52:38.113Z,7.13
2022-12-19T12:55:44.249Z,11.30
2022-12-19T12:58:50.107Z,13.70
2022-12-19T13:02:14.741Z,22.92
2022-12-19T13:05:39.659Z,15.98
2022-12-19T13:08:49.025Z,41.65
2022-12-19T13:12:23.714Z,93.65
2022-12-19T13:15:28.277Z,101.32
2022-12-19T13:18:38.673Z,82.35
2022-12-19T13:22:08.826Z,83.07
2022-12-19T13:25:37.495Z,42.90
2022-12-19T13:28:43.611Z,20.00
2022-12-19T13:32:11.673Z,141.25
2022-12-19T13:37:32.422Z,81.43
2022-12-19T13:40:01.315Z,65.53
2022-12-19T13:42:46.482Z,33.38
2022-12-19T13:45:58.645Z,40.25
2022-12-19T13:49:35.161Z,9.40
2022-12-19T13:52:40.719Z,27.58
2022-12-19T13:55:45.478Z,19.90
2022-12-19T13:58:51.808Z,18.83
2022-12-19T14:01:57.506Z,33.03
2022-12-19T14:05:02.915Z,19.45
2022-12-19T14:08:09.138Z,24.85
2022-12-19T14:11:45.230Z,24.63
2022-12-19T14:15:13.081Z,16.05
2022-12-19T14:18:42.473Z,12.10
2022-12-19T14:22:10.740Z,11.27
2022-12-19T14:27:57.495Z,6.80
2022-12-19T14:28:54.541Z,7.13
2022-12-19T14:33:41.968Z,8.40
2022-12-19T14:36:10.646Z,4.18
2022-12-19T14:39:22.943Z,10.60
2022-12-19T14:43:57.212Z,8.70
2022-12-19T14:53:08.569Z,6.53
2022-12-19T14:54:11.035Z,8.23
2022-12-19T14:54:29.754Z,13.88
2022-12-19T14:56:59.928Z,14.57
2022-12-19T15:01:08.310Z,18.65
2022-12-19T15:04:52.576Z,11.70
2022-12-19T15:07:34.863Z,11.98
2022-12-19T15:11:02.548Z,6.03
2022-12-19T15:14:54.059Z,4.45
2022-12-19T15:17:30.801Z,10.15
2022-12-19T15:23:39.736Z,3.28
2022-12-19T15:26:55.628Z,8.57
2022-12-19T15:30:00.400Z,11.63
2022-12-19T15:33:06.403Z,11.23
2022-12-19T15:36:11.581Z,12.20
2022-12-19T15:39:16.339Z,28.85
2022-12-19T15:42:26.101Z,24.77
2022-12-19T15:45:32.991Z,15.38
2022-12-19T15:48:41.744Z,11.95
2022-12-19T15:51:47.062Z,11.27
2022-12-19T15:54:51.762Z,8.88
2022-12-19T15:58:06.743Z,10.27
2022-12-19T16:01:13.426Z,12.05
2022-12-19T16:04:18.781Z,17.73
2022-12-19T16:07:26.341Z,10.15
2022-12-19T16:10:31.074Z,20.90
2022-12-19T16:13:36.559Z,16.08
2022-12-19T16:16:41.651Z,15.73
2022-12-19T16:19:46.095Z,29.95
2022-12-19T16:22:51.163Z,18.02
2022-12-19T16:25:56.469Z,20.83
2022-12-19T16:29:01.387Z,16.85
2022-12-19T16:32:06.737Z,29.50
2022-12-19T16:35:40.403Z,28.45
2022-12-19T16:38:47.774Z,6.47
2022-12-19T16:41:52.789Z,14.18
2022-12-19T16:44:57.628Z,10.23
2022-12-19T16:48:02.352Z,9.55
2022-12-19T16:51:07.596Z,4.13
2022-12-19T16:54:14.057Z,10.85
2022-12-19T16:57:22.850Z,8.98
2022-12-19T17:00:27.384Z,5.18
2022-12-19T17:03:42.401Z,19.02
2022-12-19T17:06:47.138Z,23.02
2022-12-19T17:09:51.572Z,10.20
2022-12-19T17:19:06.131Z,10.23
2022-12-19T17:22:16.181Z,11.65
2022-12-19T17:25:24.626Z,10.55
2022-12-19T17:28:30.490Z,9.70
2022-12-19T17:31:38.974Z,11.23
2022-12-19T17:34:44.514Z,11.88
2022-12-19T17:37:57.071Z,11.35
2022-12-19T17:41:01.406Z,13.15
2022-12-19T17:44:06.238Z,6.70
2022-12-19T17:47:19.841Z,9.13
2022-12-19T17:50:27.747Z,4.18
2022-12-19T17:53:32.341Z,6.72
2022-12-19T17:56:36.794Z,9.05
2022-12-19T17:59:42.852Z,8.18
2022-12-19T18:02:49.495Z,7.72
2022-12-19T18:05:56.019Z,10.55
2022-12-19T18:09:03.468Z,10.52
2022-12-19T18:12:08.072Z,7.18
2022-12-19T18:15:12.879Z,10.90
2022-12-19T18:18:23.972Z,5.47
2022-12-19T18:21:28.405Z,10.13
2022-12-19T18:27:37.856Z,13.90
2022-12-19T18:30:44.221Z,12.57
2022-12-19T18:33:49.871Z,11.15
2022-12-19T18:36:54.987Z,10.40
2022-12-19T18:39:59.464Z,9.73
2022-12-19T18:46:08.573Z,10.17
2022-12-19T18:49:17.677Z,7.90
2022-12-19T18:52:21.988Z,9.65
2022-12-19T18:58:32.158Z,8.05
2022-12-19T19:01:48.234Z,5.57
2022-12-19T19:04:53.014Z,8.88
2022-12-19T19:07:58.876Z,11.07
2022-12-19T19:11:03.920Z,10.25
2022-12-19T19:14:08.558Z,16.15
2022-12-19T19:17:29.490Z,12.32
2022-12-19T19:20:40.589Z,8.63
2022-12-19T19:23:50.393Z,13.52
2022-12-19T19:26:55.048Z,17.42
2022-12-19T19:29:59.594Z,15.82
2022-12-19T19:36:28.932Z,15.02
2022-12-19T19:39:35.365Z,21.20
2022-12-19T19:42:39.921Z,17.83
2022-12-19T19:45:44.663Z,12.15
2022-12-19T19:48:49.133Z,19.83
2022-12-19T19:55:08.429Z,33.47
2022-12-19T19:58:12.871Z,28.58
2022-12-19T20:01:17.555Z,50.22
2022-12-19T20:04:22.253Z,38.28
2022-12-19T20:07:26.819Z,27.42
2022-12-19T20:10:31.240Z,20.98
2022-12-19T20:13:35.774Z,27.27
2022-12-19T20:16:40.183Z,18.35
2022-12-19T20:19:44.531Z,28.77
2022-12-19T20:25:53.331Z,18.60
2022-12-19T20:32:02.072Z,18.15
2022-12-19T20:35:12.361Z,47.13
2022-12-19T20:38:18.936Z,31.10
2022-12-19T20:41:23.752Z,27.55
2022-12-19T20:44:28.260Z,32.92
2022-12-19T20:47:32.759Z,29.73
2022-12-19T20:50:42.708Z,34.53
2022-12-19T20:53:48.610Z,24.30
2022-12-19T20:56:53.211Z,26.27
2022-12-19T20:59:58.012Z,12.15
2022-12-19T21:03:28.036Z,20.10
2022-12-19T21:06:28.258Z,11.77
2022-12-19T21:09:32.686Z,9.52
2022-12-19T21:15:44.583Z,6.82
2022-12-19T21:18:49.844Z,23.75
2022-12-19T21:21:54.236Z,18.30
2022-12-19T21:28:02.666Z,22.23
2022-12-19T21:31:19.746Z,19.85
2022-12-19T21:34:24.552Z,35.40
2022-12-19T21:37:29.065Z,39.42
2022-12-19T21:43:38.223Z,30.35
2022-12-19T21:46:42.660Z,38.22
2022-12-19T21:52:55.740Z,44.07
2022-12-19T21:56:05.526Z,62.60
2022-12-19T21:59:15.775Z,87.75
2022-12-19T22:02:20.285Z,99.72
2022-12-19T22:05:24.898Z,75.88
2022-12-19T22:08:29.745Z,61.25
2022-12-19T22:11:34.287Z,91.90
2022-12-19T22:14:38.684Z,73.47
2022-12-19T22:17:44.609Z,23.05
2022-12-19T22:20:49.141Z,19.50
2022-12-19T22:23:54.093Z,23.23
2022-12-19T22:27:01.701Z,25.17
2022-12-19T22:30:10.872Z,22.17
2022-12-19T22:33:15.909Z,20.88
2022-12-19T22:36:27.626Z,16.10
2022-12-19T22:39:33.184Z,12.75
2022-12-19T22:42:37.823Z,17.73
2022-12-19T22:45:42.869Z,15.57
2022-12-19T22:48:48.894Z,7.70
2022-12-19T22:51:53.464Z,13.95
2022-12-19T22:54:58.064Z,12.25
2022-12-19T22:58:02.540Z,11.60
2022-12-19T23:01:17.425Z,12.40
2022-12-19T23:04:22.193Z,14.00
2022-12-19T23:07:26.971Z,14.90
2022-12-19T23:10:31.779Z,17.40
2022-12-19T23:13:36.830Z,16.00
2022-12-19T23:16:41.886Z,16.38
2022-12-19T23:19:46.493Z,15.38
2022-12-19T23:22:50.826Z,13.52
2022-12-19T23:25:55.868Z,26.02
2022-12-19T23:29:11.919Z,37.15
2022-12-19T23:32:16.333Z,14.43
2022-12-19T23:35:20.632Z,22.27
2022-12-19T23:41:29.420Z,36.00
2022-12-19T23:44:34.095Z,42.67
2022-12-19T23:47:38.943Z,38.90
2022-12-19T23:50:43.701Z,28.23
2022-12-19T23:53:48.787Z,20.35
2022-12-19T23:56:54.364Z,10.77
2022-12-19T23:59:58.879Z,55.28
